createdAt,value
2018-03-17T00:01:54.508Z,9.90
2018-03-17T00:04:22.086Z,9.90
2018-03-17T00:06:50.331Z,9.90
2018-03-17T00:09:17.786Z,9.80
2018-03-17T00:11:45.242Z,9.80
2018-03-17T00:14:12.700Z,9.80
2018-03-17T00:16:40.142Z,9.80
2018-03-17T00:19:07.614Z,9.80
2018-03-17T00:21:35.071Z,9.80
2018-03-17T00:24:02.519Z,9.80
2018-03-17T00:26:29.983Z,9.80
2018-03-17T00:28:57.457Z,9.80
2018-03-17T00:31:24.906Z,9.70
2018-03-17T00:33:52.351Z,9.70
2018-03-17T00:36:19.822Z,9.70
2018-03-17T00:38:47.759Z,9.80
2018-03-17T00:41:16.559Z,9.70
2018-03-17T00:43:45.648Z,9.70
2018-03-17T00:46:13.197Z,9.60
2018-03-17T00:48:41.211Z,9.70
2018-03-17T00:51:08.720Z,9.70
2018-03-17T00:53:36.166Z,9.70
2018-03-17T00:56:03.607Z,9.70
2018-03-17T00:58:31.874Z,9.70
2018-03-17T01:00:59.413Z,9.60
2018-03-17T01:03:26.857Z,9.70
2018-03-17T01:05:54.350Z,9.60
2018-03-17T01:08:22.612Z,9.50
2018-03-17T01:10:50.150Z,9.50
2018-03-17T01:13:17.613Z,9.60
2018-03-17T01:15:45.070Z,9.50
2018-03-17T01:18:12.550Z,9.50
2018-03-17T01:20:40.000Z,9.50
2018-03-17T01:23:07.465Z,9.50
2018-03-17T01:25:34.972Z,9.50
2018-03-17T01:28:02.879Z,9.40
2018-03-17T01:30:30.340Z,9.40
2018-03-17T01:32:57.794Z,9.50
2018-03-17T01:35:25.265Z,9.50
2018-03-17T01:37:52.718Z,9.50
2018-03-17T01:40:20.254Z,9.40
2018-03-17T01:42:47.714Z,9.40
2018-03-17T01:45:15.161Z,9.40
2018-03-17T01:47:42.620Z,9.40
2018-03-17T01:50:10.087Z,9.40
2018-03-17T01:52:37.594Z,9.40
2018-03-17T01:55:05.839Z,9.30
2018-03-17T01:57:33.282Z,9.30
2018-03-17T02:00:00.770Z,9.30
2018-03-17T02:02:28.992Z,9.30
2018-03-17T02:04:56.445Z,9.30
2018-03-17T02:07:23.894Z,9.30
2018-03-17T02:09:51.354Z,9.20
2018-03-17T02:12:18.803Z,9.20
2018-03-17T02:14:46.242Z,9.20
2018-03-17T02:17:13.681Z,9.20
2018-03-17T02:19:41.905Z,9.20
2018-03-17T02:22:09.338Z,9.20
2018-03-17T02:24:36.793Z,9.10
2018-03-17T02:27:05.023Z,9.10
2018-03-17T02:29:32.558Z,9.10
2018-03-17T02:32:00.019Z,9.10
2018-03-17T02:34:27.462Z,9.00
2018-03-17T02:36:54.914Z,9.10
2018-03-17T02:39:22.379Z,9.10
2018-03-17T02:41:49.810Z,9.10
2018-03-17T02:44:17.269Z,9.10
2018-03-17T02:46:44.725Z,9.10
2018-03-17T02:49:12.959Z,9.00
2018-03-17T02:51:40.392Z,9.00
2018-03-17T02:54:07.849Z,9.00
2018-03-17T02:56:35.294Z,9.00
2018-03-17T02:59:02.754Z,9.00
2018-03-17T03:01:30.214Z,9.00
2018-03-17T03:03:57.669Z,9.00
2018-03-17T03:06:25.101Z,8.90
2018-03-17T03:08:52.558Z,8.90
2018-03-17T03:11:20.021Z,8.90
2018-03-17T03:13:47.469Z,8.90
2018-03-17T03:16:15.669Z,8.80
2018-03-17T03:18:43.121Z,8.80
2018-03-17T03:21:10.586Z,8.90
2018-03-17T03:23:38.042Z,8.90
2018-03-17T03:26:05.493Z,8.80
2018-03-17T03:28:33.195Z,8.80
2018-03-17T03:31:00.819Z,8.80
2018-03-17T03:33:28.280Z,8.70
2018-03-17T03:35:55.969Z,8.70
2018-03-17T03:38:23.410Z,8.70
2018-03-17T03:40:50.868Z,8.60
2018-03-17T03:43:18.310Z,8.70
2018-03-17T03:45:45.805Z,8.70
2018-03-17T03:48:13.241Z,8.70
2018-03-17T03:50:40.693Z,8.60
2018-03-17T03:53:08.905Z,8.50
2018-03-17T03:55:36.344Z,8.50
2018-03-17T03:58:03.782Z,8.50
2018-03-17T04:00:31.243Z,8.50
2018-03-17T04:02:58.689Z,8.50
2018-03-17T04:05:26.139Z,8.50
2018-03-17T04:07:53.608Z,8.50
2018-03-17T04:10:21.068Z,8.40
2018-03-17T04:12:48.515Z,8.40
2018-03-17T04:15:15.970Z,8.30
2018-03-17T04:17:43.417Z,8.30
2018-03-17T04:20:10.865Z,8.30
2018-03-17T04:22:38.322Z,8.30
2018-03-17T04:25:05.768Z,8.30
2018-03-17T04:27:33.992Z,8.30
2018-03-17T04:30:01.432Z,8.30
2018-03-17T04:32:28.890Z,8.30
2018-03-17T04:34:56.345Z,8.20
2018-03-17T04:37:23.813Z,8.20
2018-03-17T04:39:52.018Z,8.20
2018-03-17T04:42:19.462Z,8.20
2018-03-17T04:44:47.226Z,8.20
2018-03-17T04:47:14.696Z,8.10
2018-03-17T04:49:42.147Z,8.10
2018-03-17T04:52:09.613Z,8.10
2018-03-17T04:54:37.048Z,8.10
2018-03-17T04:57:04.510Z,8.10
2018-03-17T04:59:32.717Z,8.10
2018-03-17T05:02:00.169Z,8.10
2018-03-17T05:04:27.618Z,8.10
2018-03-17T05:06:55.066Z,8.00
2018-03-17T05:09:22.512Z,8.00
2018-03-17T05:11:49.963Z,8.00
2018-03-17T05:14:17.452Z,7.90
2018-03-17T05:16:44.902Z,7.90
2018-03-17T05:19:12.359Z,7.90
2018-03-17T05:21:39.797Z,7.90
2018-03-17T05:24:07.261Z,7.90
2018-03-17T05:26:34.701Z,7.90
2018-03-17T05:29:02.150Z,7.90
2018-03-17T05:31:29.605Z,7.80
2018-03-17T05:33:57.066Z,7.80
2018-03-17T05:36:24.518Z,7.80
2018-03-17T05:38:51.978Z,7.80
2018-03-17T05:41:19.430Z,7.80
2018-03-17T05:43:46.888Z,7.80
2018-03-17T05:46:14.321Z,7.80
2018-03-17T05:48:42.533Z,7.70
2018-03-17T05:51:10.754Z,7.70
2018-03-17T05:53:38.230Z,7.70
2018-03-17T05:56:05.673Z,7.80
2018-03-17T05:58:33.904Z,7.70
2018-03-17T06:01:01.370Z,7.70
2018-03-17T06:03:29.579Z,7.70
2018-03-17T06:05:57.797Z,7.70
2018-03-17T06:08:25.255Z,7.60
2018-03-17T06:10:52.709Z,7.70
2018-03-17T06:13:20.177Z,7.70
2018-03-17T06:15:47.626Z,7.70
2018-03-17T06:18:15.078Z,7.70
2018-03-17T06:20:42.553Z,7.70
2018-03-17T06:23:10.011Z,7.70
2018-03-17T06:25:37.467Z,7.70
2018-03-17T06:28:04.921Z,7.70
2018-03-17T06:30:33.138Z,7.70
2018-03-17T06:33:00.598Z,7.70
2018-03-17T06:35:28.041Z,7.70
2018-03-17T06:37:55.481Z,7.70
2018-03-17T06:40:22.939Z,7.80
2018-03-17T06:42:50.385Z,7.80
2018-03-17T06:45:17.841Z,7.70
2018-03-17T06:47:45.296Z,7.80
2018-03-17T06:50:12.746Z,7.80
2018-03-17T06:52:40.193Z,7.80
2018-03-17T06:55:08.396Z,7.80
2018-03-17T06:57:35.848Z,7.80
2018-03-17T07:00:03.297Z,7.90
2018-03-17T07:02:30.773Z,7.80
2018-03-17T07:04:58.206Z,7.90
2018-03-17T07:07:25.678Z,7.90
2018-03-17T07:09:53.133Z,8.00
2018-03-17T07:12:20.595Z,8.00
2018-03-17T07:14:54.152Z,8.00
2018-03-17T07:17:21.764Z,8.00
2018-03-17T07:19:49.215Z,8.10
2018-03-17T07:22:16.662Z,8.10
2018-03-17T07:24:44.121Z,8.10
2018-03-17T07:27:11.578Z,8.10
2018-03-17T07:29:39.020Z,8.20
2018-03-17T07:32:06.461Z,8.20
2018-03-17T07:34:33.909Z,8.30
2018-03-17T07:37:02.128Z,8.50
2018-03-17T07:39:29.573Z,8.40
2018-03-17T07:41:57.024Z,8.50
2018-03-17T07:44:24.485Z,8.60
2018-03-17T07:46:51.925Z,8.60
2018-03-17T07:49:19.367Z,8.80
2018-03-17T07:51:46.807Z,8.80
2018-03-17T07:54:14.269Z,8.90
2018-03-17T07:56:42.485Z,9.00
2018-03-17T07:59:09.929Z,9.00
2018-03-17T08:01:37.370Z,9.00
2018-03-17T08:04:05.585Z,9.20
2018-03-17T08:06:33.039Z,9.20
2018-03-17T08:09:00.488Z,9.20
2018-03-17T08:11:27.950Z,9.30
2018-03-17T08:13:55.404Z,9.40
2018-03-17T08:16:22.862Z,9.50
2018-03-17T08:18:50.311Z,9.50
2018-03-17T08:21:17.755Z,9.70
2018-03-17T08:23:45.235Z,9.70
2018-03-17T08:26:12.683Z,9.90
2018-03-17T08:28:40.890Z,10.40
2018-03-17T08:31:08.337Z,10.40
2018-03-17T08:33:35.790Z,10.50
2018-03-17T08:36:03.243Z,10.70
2018-03-17T08:38:31.273Z,11.00
2018-03-17T08:40:59.486Z,11.50
2018-03-17T08:43:26.942Z,11.50
2018-03-17T08:45:54.431Z,11.70
2018-03-17T08:48:21.862Z,11.90
2018-03-17T08:50:49.313Z,12.10
2018-03-17T08:53:16.775Z,12.30
2018-03-17T08:55:44.225Z,12.50
2018-03-17T08:58:11.676Z,12.80
2018-03-17T09:00:39.134Z,13.00
2018-03-17T09:03:06.582Z,13.30
2018-03-17T09:05:34.150Z,13.60
2018-03-17T09:08:01.842Z,13.80
2018-03-17T09:10:29.289Z,13.80
2018-03-17T09:12:56.754Z,14.00
2018-03-17T09:15:24.219Z,14.20
2018-03-17T09:17:51.665Z,14.40
2018-03-17T09:20:19.197Z,14.60
2018-03-17T09:22:46.682Z,14.80
2018-03-17T09:25:14.152Z,15.10
2018-03-17T09:27:41.610Z,15.30
2018-03-17T09:30:09.057Z,15.50
2018-03-17T09:32:36.506Z,15.90
2018-03-17T09:35:04.738Z,16.40
2018-03-17T09:37:32.962Z,16.60
2018-03-17T09:40:00.405Z,16.60
2018-03-17T09:42:27.865Z,16.80
2018-03-17T09:44:55.326Z,17.00
2018-03-17T09:47:22.789Z,17.30
2018-03-17T09:49:50.235Z,17.50
2018-03-17T09:52:17.782Z,17.80
2018-03-17T09:54:45.186Z,18.10
2018-03-17T09:57:12.638Z,18.30
2018-03-17T09:59:40.106Z,18.50
2018-03-17T10:02:07.608Z,18.80
2018-03-17T10:04:35.072Z,19.10
2018-03-17T10:07:02.526Z,19.40
2018-03-17T10:09:29.982Z,19.60
2018-03-17T10:11:57.438Z,19.90
2018-03-17T10:14:24.894Z,20.10
2018-03-17T10:16:52.366Z,20.20
2018-03-17T10:19:19.826Z,20.50
2018-03-17T10:21:47.293Z,20.70
2018-03-17T10:24:14.758Z,20.90
2018-03-17T10:26:42.213Z,21.20
2018-03-17T10:29:09.653Z,21.50
2018-03-17T10:31:37.121Z,21.70
2018-03-17T10:34:05.699Z,22.00
2018-03-17T10:36:33.130Z,22.20
2018-03-17T10:39:01.357Z,22.50
2018-03-17T10:41:29.576Z,22.70
2018-03-17T10:43:57.041Z,22.70
2018-03-17T10:46:24.490Z,22.90
2018-03-17T10:48:51.955Z,23.10
2018-03-17T10:51:19.842Z,23.30
2018-03-17T10:53:47.313Z,23.70
2018-03-17T10:56:14.816Z,23.90
2018-03-17T10:58:42.301Z,24.10
2018-03-17T11:01:15.443Z,24.30
2018-03-17T11:03:42.923Z,24.50
2018-03-17T11:06:11.156Z,25.00
2018-03-17T11:08:38.624Z,25.00
2018-03-17T11:11:06.070Z,25.30
2018-03-17T11:13:33.537Z,25.60
2018-03-17T11:16:00.977Z,26.00
2018-03-17T11:18:28.438Z,26.70
2018-03-17T11:20:55.883Z,27.40
2018-03-17T11:23:23.349Z,28.30
2018-03-17T11:25:50.801Z,29.80
2018-03-17T11:28:18.303Z,31.70
2018-03-17T11:30:47.834Z,34.00
2018-03-17T11:33:16.061Z,36.00
2018-03-17T11:35:43.519Z,35.90
2018-03-17T11:38:11.008Z,35.70
2018-03-17T11:40:38.481Z,35.40
2018-03-17T11:43:06.705Z,35.60
2018-03-17T11:45:34.153Z,35.50
2018-03-17T11:48:01.630Z,34.10
2018-03-17T11:50:29.065Z,33.20
2018-03-17T11:52:56.521Z,32.60
2018-03-17T11:55:23.977Z,32.20
2018-03-17T11:57:51.433Z,31.50
2018-03-17T12:00:18.898Z,31.20
2018-03-17T12:02:46.354Z,30.30
2018-03-17T12:05:13.813Z,30.00
2018-03-17T12:07:41.265Z,30.70
2018-03-17T12:10:08.759Z,32.00
2018-03-17T12:12:36.977Z,34.10
2018-03-17T12:15:05.193Z,35.60
2018-03-17T12:17:32.633Z,35.50
2018-03-17T12:20:00.090Z,35.40
2018-03-17T12:22:27.604Z,36.70
2018-03-17T12:24:55.018Z,37.50
2018-03-17T12:27:22.462Z,36.90
2018-03-17T12:29:50.689Z,35.30
2018-03-17T12:32:18.961Z,33.60
2018-03-17T12:34:49.134Z,34.90
2018-03-17T12:37:16.598Z,35.00
2018-03-17T12:39:44.050Z,36.10
2018-03-17T12:42:11.501Z,36.60
2018-03-17T12:44:38.952Z,36.00
2018-03-17T12:47:06.419Z,35.20
2018-03-17T12:49:33.873Z,34.20
2018-03-17T12:52:01.345Z,33.50
2018-03-17T12:54:28.793Z,33.10
2018-03-17T12:56:56.249Z,33.90
2018-03-17T12:59:23.704Z,34.70
2018-03-17T13:01:51.165Z,35.50
2018-03-17T13:04:18.614Z,35.60
2018-03-17T13:06:46.070Z,36.00
2018-03-17T13:09:13.606Z,35.80
2018-03-17T13:11:41.829Z,35.80
2018-03-17T13:14:09.274Z,35.70
2018-03-17T13:16:36.729Z,35.80
2018-03-17T13:19:04.184Z,35.90
2018-03-17T13:21:31.641Z,36.00
2018-03-17T13:23:59.111Z,36.60
2018-03-17T13:26:26.577Z,37.20
2018-03-17T13:28:54.042Z,37.70
2018-03-17T13:31:21.514Z,37.70
2018-03-17T13:33:48.990Z,37.70
2018-03-17T13:39:28.087Z,38.50
2018-03-17T13:41:55.547Z,38.50
2018-03-17T13:44:22.989Z,38.40
2018-03-17T13:46:50.457Z,38.30
2018-03-17T13:49:18.750Z,38.30
2018-03-17T13:51:46.265Z,38.30
2018-03-17T13:54:13.750Z,38.60
2018-03-17T13:56:41.204Z,38.80
2018-03-17T13:59:08.674Z,39.20
2018-03-17T14:01:36.120Z,38.80
2018-03-17T14:04:03.573Z,39.00
2018-03-17T14:06:31.033Z,39.30
2018-03-17T14:08:58.494Z,38.90
2018-03-17T14:11:25.972Z,39.20
2018-03-17T14:13:53.421Z,39.40
2018-03-17T14:16:20.862Z,39.70
2018-03-17T14:18:48.352Z,39.70
2018-03-17T14:21:15.793Z,39.80
2018-03-17T14:23:43.263Z,39.90
2018-03-17T14:26:11.469Z,39.90
2018-03-17T14:28:39.766Z,39.70
2018-03-17T14:31:07.217Z,39.70
2018-03-17T14:33:34.697Z,39.80
2018-03-17T14:36:02.147Z,39.40
2018-03-17T14:38:29.605Z,39.00
2018-03-17T14:40:57.051Z,38.80
2018-03-17T14:43:24.524Z,38.50
2018-03-17T14:45:51.966Z,38.30
2018-03-17T14:48:19.422Z,37.90
2018-03-17T14:50:46.877Z,37.70
2018-03-17T14:53:14.355Z,37.90
2018-03-17T14:55:41.789Z,37.40
2018-03-17T14:58:09.651Z,37.30
2018-03-17T15:00:37.861Z,35.80
2018-03-17T15:03:05.370Z,35.70
2018-03-17T15:05:33.599Z,33.60
2018-03-17T15:08:01.062Z,33.50
2018-03-17T15:10:28.603Z,32.70
2018-03-17T15:12:56.061Z,31.80
2018-03-17T15:15:23.559Z,31.00
2018-03-17T15:17:51.012Z,30.50
2018-03-17T15:20:18.503Z,29.80
2018-03-17T15:22:45.969Z,29.30
2018-03-17T15:25:14.218Z,28.50
2018-03-17T15:27:42.436Z,28.80
2018-03-17T15:30:09.942Z,28.70
2018-03-17T15:32:37.402Z,29.10
2018-03-17T15:35:05.645Z,29.30
2018-03-17T15:37:33.099Z,29.20
2018-03-17T15:40:00.552Z,29.30
2018-03-17T15:42:28.010Z,29.60
2018-03-17T15:44:55.469Z,29.50
2018-03-17T15:47:22.950Z,29.60
2018-03-17T15:49:50.381Z,29.40
2018-03-17T15:52:17.838Z,29.00
2018-03-17T15:54:45.338Z,28.50
2018-03-17T15:57:12.933Z,27.90
2018-03-17T15:59:41.145Z,26.90
2018-03-17T16:02:08.614Z,26.90
2018-03-17T16:04:36.138Z,26.50
2018-03-17T16:07:03.581Z,26.20
2018-03-17T16:09:31.047Z,25.80
2018-03-17T16:11:59.417Z,25.50
2018-03-17T16:14:27.623Z,24.70
2018-03-17T16:16:55.077Z,24.70
2018-03-17T16:19:22.541Z,24.30
2018-03-17T16:21:49.997Z,24.20
2018-03-17T16:24:17.493Z,23.80
2018-03-17T16:26:44.915Z,23.40
2018-03-17T16:29:12.364Z,23.30
2018-03-17T16:31:39.825Z,23.10
2018-03-17T16:34:07.286Z,22.90
2018-03-17T16:36:34.745Z,22.60
2018-03-17T16:39:02.181Z,22.40
2018-03-17T16:41:29.629Z,22.00
2018-03-17T16:43:57.079Z,21.80
2018-03-17T16:46:24.544Z,21.80
2018-03-17T16:48:51.989Z,21.60
2018-03-17T16:51:20.218Z,21.20
2018-03-17T16:53:47.684Z,21.10
2018-03-17T16:56:15.150Z,21.10
2018-03-17T16:58:42.613Z,21.20
2018-03-17T17:01:10.074Z,21.00
2018-03-17T17:03:37.537Z,20.90
2018-03-17T17:06:05.001Z,20.80
2018-03-17T17:08:32.531Z,20.90
2018-03-17T17:10:59.986Z,20.90
2018-03-17T17:13:27.463Z,20.70
2018-03-17T17:15:56.515Z,20.60
2018-03-17T17:18:23.974Z,20.60
2018-03-17T17:20:51.433Z,20.60
2018-03-17T17:23:18.889Z,20.50
2018-03-17T17:25:46.351Z,20.50
2018-03-17T17:28:13.838Z,20.50
2018-03-17T17:30:41.262Z,20.50
2018-03-17T17:33:08.715Z,20.30
2018-03-17T17:35:38.147Z,20.30
2018-03-17T17:38:05.630Z,20.20
2018-03-17T17:40:33.073Z,20.20
2018-03-17T17:43:00.552Z,20.20
2018-03-17T17:45:28.791Z,20.20
2018-03-17T17:47:56.265Z,20.20
2018-03-17T17:50:23.722Z,20.20
2018-03-17T17:52:51.177Z,20.10
2018-03-17T17:55:18.635Z,20.00
2018-03-17T17:57:49.609Z,19.90
2018-03-17T18:00:17.841Z,19.90
2018-03-17T18:02:46.049Z,19.80
2018-03-17T18:05:14.258Z,19.80
2018-03-17T18:07:41.721Z,19.80
2018-03-17T18:10:09.177Z,19.90
2018-03-17T18:12:36.617Z,19.00
2018-03-17T18:15:04.073Z,17.40
2018-03-17T18:17:31.526Z,15.50
2018-03-17T18:19:59.749Z,14.30
2018-03-17T18:22:27.208Z,14.20
2018-03-17T18:24:54.661Z,13.60
2018-03-17T18:27:22.118Z,13.20
2018-03-17T18:29:49.578Z,13.00
2018-03-17T18:32:17.033Z,12.90
2018-03-17T18:34:44.639Z,12.20
2018-03-17T18:37:12.852Z,11.80
2018-03-17T18:39:40.305Z,11.80
2018-03-17T18:42:07.761Z,11.10
2018-03-17T18:44:35.228Z,10.90
2018-03-17T18:47:02.677Z,10.50
2018-03-17T18:49:30.151Z,10.40
2018-03-17T18:51:57.592Z,10.50
2018-03-17T18:54:25.050Z,10.40
2018-03-17T18:56:52.510Z,10.30
2018-03-17T18:59:19.962Z,10.60
2018-03-17T19:01:47.416Z,10.60
2018-03-17T19:04:14.879Z,10.40
2018-03-17T19:06:42.339Z,10.00
2018-03-17T19:09:09.794Z,9.90
2018-03-17T19:11:37.236Z,9.90
2018-03-17T19:14:04.689Z,9.70
2018-03-17T19:16:32.145Z,9.60
2018-03-17T19:18:59.597Z,9.70
2018-03-17T19:21:27.818Z,9.30
2018-03-17T19:23:56.025Z,8.70
2018-03-17T19:26:23.490Z,8.70
2018-03-17T19:28:51.702Z,9.00
2018-03-17T19:31:19.155Z,9.00
2018-03-17T19:33:46.597Z,8.90
2018-03-17T19:36:14.097Z,9.00
2018-03-17T19:38:41.550Z,8.90
2018-03-17T19:41:09.025Z,9.00
2018-03-17T19:43:36.498Z,10.70
2018-03-17T19:46:03.949Z,13.10
2018-03-17T19:48:31.406Z,14.20
2018-03-17T19:50:58.864Z,14.80
2018-03-17T19:53:26.324Z,14.70
2018-03-17T19:55:53.786Z,14.00
2018-03-17T19:58:21.242Z,13.50
2018-03-17T20:00:48.697Z,13.20
2018-03-17T20:03:16.188Z,12.90
2018-03-17T20:05:43.652Z,12.50
2018-03-17T20:08:11.094Z,12.40
2018-03-17T20:10:39.323Z,12.20
2018-03-17T20:13:07.577Z,12.10
2018-03-17T20:15:34.997Z,12.10
2018-03-17T20:18:03.220Z,12.00
2018-03-17T20:20:30.677Z,12.00
2018-03-17T20:22:58.143Z,11.90
2018-03-17T20:25:25.602Z,11.90
2018-03-17T20:27:53.110Z,11.80
2018-03-17T20:30:20.536Z,11.70
2018-03-17T20:32:48.676Z,11.70
2018-03-17T20:35:16.123Z,11.70
2018-03-17T20:37:43.581Z,11.70
2018-03-17T20:40:11.077Z,11.60
2018-03-17T20:42:38.570Z,11.50
2018-03-17T20:45:07.101Z,11.40
2018-03-17T20:47:41.262Z,11.40
2018-03-17T20:50:09.231Z,11.40
2018-03-17T20:52:36.898Z,11.40
2018-03-17T20:55:04.350Z,11.30
2018-03-17T20:57:32.610Z,11.30
2018-03-17T21:00:00.063Z,11.30
2018-03-17T21:02:27.527Z,11.20
2018-03-17T21:04:55.762Z,11.20
2018-03-17T21:07:23.246Z,11.20
2018-03-17T21:09:50.701Z,11.10
2018-03-17T21:12:18.157Z,11.10
2018-03-17T21:14:45.609Z,11.10
2018-03-17T21:17:13.102Z,11.10
2018-03-17T21:19:40.545Z,11.00
2018-03-17T21:22:08.786Z,10.90
2018-03-17T21:24:36.254Z,10.90
2018-03-17T21:27:03.709Z,10.90
2018-03-17T21:29:31.928Z,10.80
2018-03-17T21:32:00.188Z,10.80
2018-03-17T21:34:28.411Z,10.80
2018-03-17T21:36:55.865Z,10.80
2018-03-17T21:39:23.354Z,10.80
2018-03-17T21:41:50.827Z,10.70
2018-03-17T21:44:18.294Z,10.80
2018-03-17T21:46:46.530Z,10.70
2018-03-17T21:49:14.005Z,10.70
2018-03-17T21:51:41.545Z,10.60
2018-03-17T21:54:09.011Z,10.70
2018-03-17T21:56:36.490Z,10.60
2018-03-17T21:59:03.932Z,10.60
2018-03-17T22:01:31.388Z,10.60
2018-03-17T22:03:58.891Z,10.50
2018-03-17T22:06:26.354Z,10.50
2018-03-17T22:08:53.806Z,10.50
2018-03-17T22:11:21.254Z,10.50
2018-03-17T22:13:49.484Z,10.40
2018-03-17T22:16:16.940Z,10.40
2018-03-17T22:18:44.395Z,10.40
2018-03-17T22:21:11.850Z,10.30
2018-03-17T22:23:39.311Z,10.40
2018-03-17T22:26:06.767Z,10.40
2018-03-17T22:28:34.245Z,10.30
2018-03-17T22:31:01.731Z,10.20
2018-03-17T22:33:29.205Z,10.20
2018-03-17T22:35:56.656Z,10.20
2018-03-17T22:38:24.869Z,10.10
2018-03-17T22:40:54.260Z,10.10
2018-03-17T22:43:21.701Z,10.10
2018-03-17T22:45:49.156Z,10.10
2018-03-17T22:48:16.594Z,10.00
2018-03-17T22:50:44.829Z,10.00
2018-03-17T22:53:12.350Z,10.00
2018-03-17T22:55:40.621Z,10.00
2018-03-17T22:58:08.247Z,9.90
2018-03-17T23:00:35.725Z,9.90
2018-03-17T23:03:03.925Z,9.90
2018-03-17T23:05:31.368Z,9.80
2018-03-17T23:07:58.815Z,9.90
2018-03-17T23:10:26.273Z,9.80
2018-03-17T23:12:54.494Z,9.80
2018-03-17T23:15:21.989Z,9.80
2018-03-17T23:17:49.407Z,9.70
2018-03-17T23:20:16.866Z,9.70
2018-03-17T23:22:44.316Z,9.70
2018-03-17T23:25:12.662Z,9.70
2018-03-17T23:27:40.109Z,9.70
2018-03-17T23:30:07.552Z,9.60
2018-03-17T23:32:35.017Z,9.60
2018-03-17T23:35:02.473Z,9.60
2018-03-17T23:37:29.918Z,9.60
2018-03-17T23:39:57.402Z,9.60
2018-03-17T23:42:24.854Z,9.50
2018-03-17T23:44:53.094Z,9.50
2018-03-17T23:47:20.537Z,9.50
2018-03-17T23:49:48.014Z,9.40
2018-03-17T23:52:15.463Z,9.40
2018-03-17T23:54:43.673Z,9.40
2018-03-17T23:57:11.926Z,9.40
2018-03-17T23:59:39.373Z,9.30
